RJAZ(METAR)
02/20 16:00
RJAZ 200700Z 30021G33KT CAVOK 16/09 Q1010 RMK A2985=
戻る
トップページへ戻る
IMOC Co,.Ltd.